Terminal Aerodrome Forecast
Issued by NWS Lake Charles, LA

Home | Current Version | Previous Version | Text Only | Print | Product List | Glossary On
Versions: 1 2 3 4 5 6 7 8 9 10 11 12 13 14 15 16 17 18 19 20
803
FTUS44 KLCH 312322
TAFLFT
TAF
KLFT 312322Z 0100/0124 19009KT P6SM VCSH SCT040 SCT150
     FM010100 VRB03KT P6SM SCT200
     FM011400 13005KT P6SM SCT025 SCT200
     FM011800 17008KT P6SM VCSH BKN050=

USA.gov is the U.S. government's official web portal to all federal, state and local government web resources and services.